sensor_id;sensor_type;location;lat;lon;timestamp;temperature;humidity
4453;DHT22;2239;48.152;11.584;2023-04-24T00:01:28;11.30;99.90
4453;DHT22;2239;48.152;11.584;2023-04-24T00:03:55;11.30;99.90
4453;DHT22;2239;48.152;11.584;2023-04-24T00:06:21;11.20;99.90
4453;DHT22;2239;48.152;11.584;2023-04-24T00:08:48;11.20;99.90
4453;DHT22;2239;48.152;11.584;2023-04-24T00:11:14;11.30;99.90
4453;DHT22;2239;48.152;11.584;2023-04-24T00:13:40;11.20;99.90
4453;DHT22;2239;48.152;11.584;2023-04-24T00:16:05;11.20;99.90
4453;DHT22;2239;48.152;11.584;2023-04-24T00:18:31;11.10;99.90
4453;DHT22;2239;48.152;11.584;2023-04-24T00:20:57;11.10;99.90
4453;DHT22;2239;48.152;11.584;2023-04-24T00:23:22;11.10;99.90
4453;DHT22;2239;48.152;11.584;2023-04-24T00:25:48;11.10;99.90
4453;DHT22;2239;48.152;11.584;2023-04-24T00:28:13;11.00;99.90
4453;DHT22;2239;48.152;11.584;2023-04-24T00:30:39;11.10;99.90
4453;DHT22;2239;48.152;11.584;2023-04-24T00:33:05;11.00;99.90
4453;DHT22;2239;48.152;11.584;2023-04-24T00:35:30;10.90;99.90
4453;DHT22;2239;48.152;11.584;2023-04-24T00:37:56;10.90;99.90
4453;DHT22;2239;48.152;11.584;2023-04-24T00:40:22;10.90;99.90
4453;DHT22;2239;48.152;11.584;2023-04-24T00:42:47;10.90;99.90
4453;DHT22;2239;48.152;11.584;2023-04-24T00:45:13;10.80;99.90
4453;DHT22;2239;48.152;11.584;2023-04-24T00:47:41;10.90;99.90
4453;DHT22;2239;48.152;11.584;2023-04-24T00:50:07;10.80;99.90
4453;DHT22;2239;48.152;11.584;2023-04-24T00:52:33;10.90;99.90
4453;DHT22;2239;48.152;11.584;2023-04-24T00:54:59;10.80;99.90
4453;DHT22;2239;48.152;11.584;2023-04-24T00:57:25;10.80;99.90
4453;DHT22;2239;48.152;11.584;2023-04-24T00:59:52;10.90;99.90
4453;DHT22;2239;48.152;11.584;2023-04-24T01:02:18;10.90;99.90
4453;DHT22;2239;48.152;11.584;2023-04-24T01:04:45;10.90;99.90
4453;DHT22;2239;48.152;11.584;2023-04-24T01:07:10;10.90;99.90
4453;DHT22;2239;48.152;11.584;2023-04-24T01:09:46;10.90;99.90
4453;DHT22;2239;48.152;11.584;2023-04-24T01:12:14;10.90;99.90
4453;DHT22;2239;48.152;11.584;2023-04-24T01:14:40;10.90;99.90
4453;DHT22;2239;48.152;11.584;2023-04-24T01:17:06;10.90;99.90
4453;DHT22;2239;48.152;11.584;2023-04-24T01:19:32;10.80;99.90
4453;DHT22;2239;48.152;11.584;2023-04-24T01:21:59;10.80;99.90
4453;DHT22;2239;48.152;11.584;2023-04-24T01:24:27;10.80;99.90
4453;DHT22;2239;48.152;11.584;2023-04-24T01:26:53;10.80;99.90
4453;DHT22;2239;48.152;11.584;2023-04-24T01:29:19;10.80;99.90
4453;DHT22;2239;48.152;11.584;2023-04-24T01:31:45;10.70;99.90
4453;DHT22;2239;48.152;11.584;2023-04-24T01:34:10;10.70;99.90
4453;DHT22;2239;48.152;11.584;2023-04-24T01:36:36;10.80;99.90
4453;DHT22;2239;48.152;11.584;2023-04-24T01:39:03;10.80;99.90
4453;DHT22;2239;48.152;11.584;2023-04-24T01:41:30;10.80;99.90
4453;DHT22;2239;48.152;11.584;2023-04-24T01:43:57;10.70;99.90
4453;DHT22;2239;48.152;11.584;2023-04-24T01:46:24;10.70;99.90
4453;DHT22;2239;48.152;11.584;2023-04-24T01:48:51;10.70;99.90
4453;DHT22;2239;48.152;11.584;2023-04-24T01:51:17;10.60;99.90
4453;DHT22;2239;48.152;11.584;2023-04-24T01:53:42;10.60;99.90
4453;DHT22;2239;48.152;11.584;2023-04-24T01:56:08;10.50;99.90
4453;DHT22;2239;48.152;11.584;2023-04-24T01:58:34;10.50;99.90
4453;DHT22;2239;48.152;11.584;2023-04-24T02:01:00;10.50;99.90
4453;DHT22;2239;48.152;11.584;2023-04-24T02:03:26;10.50;99.90
4453;DHT22;2239;48.152;11.584;2023-04-24T02:05:52;10.50;99.90
4453;DHT22;2239;48.152;11.584;2023-04-24T02:08:17;10.50;99.90
4453;DHT22;2239;48.152;11.584;2023-04-24T02:10:43;10.50;99.90
4453;DHT22;2239;48.152;11.584;2023-04-24T02:13:09;10.50;99.90
4453;DHT22;2239;48.152;11.584;2023-04-24T02:15:35;10.40;99.90
4453;DHT22;2239;48.152;11.584;2023-04-24T02:18:01;10.50;99.90
4453;DHT22;2239;48.152;11.584;2023-04-24T02:20:27;10.40;99.90
4453;DHT22;2239;48.152;11.584;2023-04-24T02:22:52;10.50;99.90
4453;DHT22;2239;48.152;11.584;2023-04-24T02:25:18;10.50;99.90
4453;DHT22;2239;48.152;11.584;2023-04-24T02:27:43;10.50;99.90
4453;DHT22;2239;48.152;11.584;2023-04-24T02:30:10;10.50;99.90
4453;DHT22;2239;48.152;11.584;2023-04-24T02:32:36;10.50;99.90
4453;DHT22;2239;48.152;11.584;2023-04-24T02:35:01;10.60;99.90
4453;DHT22;2239;48.152;11.584;2023-04-24T02:37:27;10.50;99.90
4453;DHT22;2239;48.152;11.584;2023-04-24T02:39:52;10.50;99.90
4453;DHT22;2239;48.152;11.584;2023-04-24T02:42:18;10.50;99.90
4453;DHT22;2239;48.152;11.584;2023-04-24T02:44:43;10.50;99.90
4453;DHT22;2239;48.152;11.584;2023-04-24T02:47:09;10.40;99.90
4453;DHT22;2239;48.152;11.584;2023-04-24T02:49:34;10.40;99.90
4453;DHT22;2239;48.152;11.584;2023-04-24T02:52:00;10.40;99.90
4453;DHT22;2239;48.152;11.584;2023-04-24T02:54:25;10.40;99.90
4453;DHT22;2239;48.152;11.584;2023-04-24T02:56:51;10.40;99.90
4453;DHT22;2239;48.152;11.584;2023-04-24T02:59:17;10.40;99.90
4453;DHT22;2239;48.152;11.584;2023-04-24T03:01:42;10.30;99.90
4453;DHT22;2239;48.152;11.584;2023-04-24T03:04:08;10.30;99.90
4453;DHT22;2239;48.152;11.584;2023-04-24T03:06:33;10.30;99.90
4453;DHT22;2239;48.152;11.584;2023-04-24T03:09:01;10.20;99.90
4453;DHT22;2239;48.152;11.584;2023-04-24T03:11:26;10.20;99.90
4453;DHT22;2239;48.152;11.584;2023-04-24T03:13:52;10.20;99.90
4453;DHT22;2239;48.152;11.584;2023-04-24T03:16:17;10.20;99.90
4453;DHT22;2239;48.152;11.584;2023-04-24T03:18:43;10.20;99.90
4453;DHT22;2239;48.152;11.584;2023-04-24T03:21:08;10.20;99.90
4453;DHT22;2239;48.152;11.584;2023-04-24T03:23:34;10.20;99.90
4453;DHT22;2239;48.152;11.584;2023-04-24T03:25:59;10.10;99.90
4453;DHT22;2239;48.152;11.584;2023-04-24T03:28:25;10.10;99.90
4453;DHT22;2239;48.152;11.584;2023-04-24T03:30:51;10.10;99.90
4453;DHT22;2239;48.152;11.584;2023-04-24T03:33:17;10.10;99.90
4453;DHT22;2239;48.152;11.584;2023-04-24T03:35:42;10.10;99.90
4453;DHT22;2239;48.152;11.584;2023-04-24T03:38:08;10.00;99.90
4453;DHT22;2239;48.152;11.584;2023-04-24T03:40:33;10.00;99.90
4453;DHT22;2239;48.152;11.584;2023-04-24T03:42:59;10.00;99.90
4453;DHT22;2239;48.152;11.584;2023-04-24T03:45:25;9.90;99.90
4453;DHT22;2239;48.152;11.584;2023-04-24T03:47:50;9.90;99.90
4453;DHT22;2239;48.152;11.584;2023-04-24T03:50:16;9.90;99.90
4453;DHT22;2239;48.152;11.584;2023-04-24T03:52:42;9.90;99.90
4453;DHT22;2239;48.152;11.584;2023-04-24T03:55:07;9.90;99.90
4453;DHT22;2239;48.152;11.584;2023-04-24T03:57:33;10.00;99.90
4453;DHT22;2239;48.152;11.584;2023-04-24T03:59:58;9.90;99.90
4453;DHT22;2239;48.152;11.584;2023-04-24T04:02:25;9.90;99.90
4453;DHT22;2239;48.152;11.584;2023-04-24T04:04:50;10.00;99.90
4453;DHT22;2239;48.152;11.584;2023-04-24T04:07:16;10.00;99.90
4453;DHT22;2239;48.152;11.584;2023-04-24T04:09:41;9.90;99.90
4453;DHT22;2239;48.152;11.584;2023-04-24T04:12:07;10.00;99.90
4453;DHT22;2239;48.152;11.584;2023-04-24T04:14:32;9.90;99.90
4453;DHT22;2239;48.152;11.584;2023-04-24T04:16:58;9.90;99.90
4453;DHT22;2239;48.152;11.584;2023-04-24T04:19:24;9.90;99.90
4453;DHT22;2239;48.152;11.584;2023-04-24T04:21:49;9.80;99.90
4453;DHT22;2239;48.152;11.584;2023-04-24T04:24:19;9.80;99.90
4453;DHT22;2239;48.152;11.584;2023-04-24T04:26:46;9.80;99.90
4453;DHT22;2239;48.152;11.584;2023-04-24T04:29:13;9.90;99.90
4453;DHT22;2239;48.152;11.584;2023-04-24T04:31:38;9.80;99.90
4453;DHT22;2239;48.152;11.584;2023-04-24T04:34:04;9.80;99.90
4453;DHT22;2239;48.152;11.584;2023-04-24T04:36:29;9.80;99.90
4453;DHT22;2239;48.152;11.584;2023-04-24T04:38:55;9.90;99.90
4453;DHT22;2239;48.152;11.584;2023-04-24T04:41:22;9.80;99.90
4453;DHT22;2239;48.152;11.584;2023-04-24T04:43:48;9.80;99.90
4453;DHT22;2239;48.152;11.584;2023-04-24T04:46:13;9.80;99.90
4453;DHT22;2239;48.152;11.584;2023-04-24T04:48:39;9.80;99.90
4453;DHT22;2239;48.152;11.584;2023-04-24T04:51:05;9.90;99.90
4453;DHT22;2239;48.152;11.584;2023-04-24T04:53:31;9.80;99.90
4453;DHT22;2239;48.152;11.584;2023-04-24T04:55:57;9.80;99.90
4453;DHT22;2239;48.152;11.584;2023-04-24T04:58:23;9.90;99.90
4453;DHT22;2239;48.152;11.584;2023-04-24T05:00:48;9.90;99.90
4453;DHT22;2239;48.152;11.584;2023-04-24T05:03:14;9.90;99.90
4453;DHT22;2239;48.152;11.584;2023-04-24T05:05:40;9.90;99.90
4453;DHT22;2239;48.152;11.584;2023-04-24T05:08:07;9.90;99.90
4453;DHT22;2239;48.152;11.584;2023-04-24T05:10:33;9.80;99.90
4453;DHT22;2239;48.152;11.584;2023-04-24T05:12:59;9.90;99.90
4453;DHT22;2239;48.152;11.584;2023-04-24T05:15:25;9.90;99.90
4453;DHT22;2239;48.152;11.584;2023-04-24T05:17:50;9.90;99.90
4453;DHT22;2239;48.152;11.584;2023-04-24T05:20:16;10.00;99.90
4453;DHT22;2239;48.152;11.584;2023-04-24T05:22:42;10.00;99.90
4453;DHT22;2239;48.152;11.584;2023-04-24T05:25:07;10.00;99.90
4453;DHT22;2239;48.152;11.584;2023-04-24T05:27:33;10.00;99.90
4453;DHT22;2239;48.152;11.584;2023-04-24T05:29:59;10.00;99.90
4453;DHT22;2239;48.152;11.584;2023-04-24T05:32:24;10.00;99.90
4453;DHT22;2239;48.152;11.584;2023-04-24T05:34:52;10.00;99.90
4453;DHT22;2239;48.152;11.584;2023-04-24T05:37:17;10.00;99.90
4453;DHT22;2239;48.152;11.584;2023-04-24T05:39:43;10.10;99.90
4453;DHT22;2239;48.152;11.584;2023-04-24T05:42:09;10.10;99.90
4453;DHT22;2239;48.152;11.584;2023-04-24T05:44:34;10.10;99.90
4453;DHT22;2239;48.152;11.584;2023-04-24T05:47:00;10.10;99.90
4453;DHT22;2239;48.152;11.584;2023-04-24T05:49:26;10.10;99.90
4453;DHT22;2239;48.152;11.584;2023-04-24T05:51:51;10.20;99.90
4453;DHT22;2239;48.152;11.584;2023-04-24T05:54:17;10.10;99.90
4453;DHT22;2239;48.152;11.584;2023-04-24T05:56:42;10.20;99.90
4453;DHT22;2239;48.152;11.584;2023-04-24T05:59:08;10.30;99.90
4453;DHT22;2239;48.152;11.584;2023-04-24T06:01:34;10.30;99.90
4453;DHT22;2239;48.152;11.584;2023-04-24T06:04:02;10.30;99.90
4453;DHT22;2239;48.152;11.584;2023-04-24T06:06:28;10.40;99.90
4453;DHT22;2239;48.152;11.584;2023-04-24T06:08:54;10.40;99.90
4453;DHT22;2239;48.152;11.584;2023-04-24T06:11:19;10.40;99.90
4453;DHT22;2239;48.152;11.584;2023-04-24T06:13:45;10.50;99.90
4453;DHT22;2239;48.152;11.584;2023-04-24T06:16:11;10.50;99.90
4453;DHT22;2239;48.152;11.584;2023-04-24T06:18:36;10.60;99.90
4453;DHT22;2239;48.152;11.584;2023-04-24T06:21:02;10.70;99.90
4453;DHT22;2239;48.152;11.584;2023-04-24T06:23:27;10.70;99.90
4453;DHT22;2239;48.152;11.584;2023-04-24T06:25:53;10.80;99.90
4453;DHT22;2239;48.152;11.584;2023-04-24T06:28:19;10.90;99.90
4453;DHT22;2239;48.152;11.584;2023-04-24T06:30:44;11.00;99.90
4453;DHT22;2239;48.152;11.584;2023-04-24T06:33:10;11.00;99.90
4453;DHT22;2239;48.152;11.584;2023-04-24T06:35:36;10.90;99.90
4453;DHT22;2239;48.152;11.584;2023-04-24T06:38:03;10.90;99.90
4453;DHT22;2239;48.152;11.584;2023-04-24T06:40:28;11.00;99.90
4453;DHT22;2239;48.152;11.584;2023-04-24T06:42:54;11.00;99.90
4453;DHT22;2239;48.152;11.584;2023-04-24T06:45:20;11.10;99.90
4453;DHT22;2239;48.152;11.584;2023-04-24T06:47:45;11.10;99.90
4453;DHT22;2239;48.152;11.584;2023-04-24T06:50:11;11.10;99.90
4453;DHT22;2239;48.152;11.584;2023-04-24T06:52:37;11.20;99.90
4453;DHT22;2239;48.152;11.584;2023-04-24T06:55:04;11.30;99.90
4453;DHT22;2239;48.152;11.584;2023-04-24T06:57:31;11.30;99.90
4453;DHT22;2239;48.152;11.584;2023-04-24T06:59:56;11.50;99.90
4453;DHT22;2239;48.152;11.584;2023-04-24T07:02:22;11.60;99.90
4453;DHT22;2239;48.152;11.584;2023-04-24T07:04:48;11.70;99.90
4453;DHT22;2239;48.152;11.584;2023-04-24T07:07:13;11.80;99.90
4453;DHT22;2239;48.152;11.584;2023-04-24T07:09:40;11.90;99.90
4453;DHT22;2239;48.152;11.584;2023-04-24T07:12:11;12.00;99.90
4453;DHT22;2239;48.152;11.584;2023-04-24T07:14:37;12.20;99.90
4453;DHT22;2239;48.152;11.584;2023-04-24T07:17:04;12.20;99.90
4453;DHT22;2239;48.152;11.584;2023-04-24T07:19:30;12.30;99.90
4453;DHT22;2239;48.152;11.584;2023-04-24T07:21:55;12.40;99.90
4453;DHT22;2239;48.152;11.584;2023-04-24T07:24:24;12.50;99.90
4453;DHT22;2239;48.152;11.584;2023-04-24T07:26:51;12.50;99.90
4453;DHT22;2239;48.152;11.584;2023-04-24T07:29:17;12.50;99.90
4453;DHT22;2239;48.152;11.584;2023-04-24T07:31:43;12.60;99.90
4453;DHT22;2239;48.152;11.584;2023-04-24T07:34:09;12.70;99.90
4453;DHT22;2239;48.152;11.584;2023-04-24T07:36:35;12.80;99.90
4453;DHT22;2239;48.152;11.584;2023-04-24T07:39:00;12.90;99.90
4453;DHT22;2239;48.152;11.584;2023-04-24T07:41:26;12.80;99.90
4453;DHT22;2239;48.152;11.584;2023-04-24T07:43:53;12.70;99.90
4453;DHT22;2239;48.152;11.584;2023-04-24T07:46:19;12.50;99.90
4453;DHT22;2239;48.152;11.584;2023-04-24T07:48:45;12.30;99.90
4453;DHT22;2239;48.152;11.584;2023-04-24T07:51:14;12.30;99.90
4453;DHT22;2239;48.152;11.584;2023-04-24T07:53:40;12.20;99.90
4453;DHT22;2239;48.152;11.584;2023-04-24T07:56:05;12.20;99.90
4453;DHT22;2239;48.152;11.584;2023-04-24T07:58:31;12.30;99.90
4453;DHT22;2239;48.152;11.584;2023-04-24T08:00:57;12.20;99.90
4453;DHT22;2239;48.152;11.584;2023-04-24T08:03:22;12.30;99.90
4453;DHT22;2239;48.152;11.584;2023-04-24T08:05:48;12.40;99.90
4453;DHT22;2239;48.152;11.584;2023-04-24T08:08:13;12.50;99.90
4453;DHT22;2239;48.152;11.584;2023-04-24T08:10:39;12.50;99.90
4453;DHT22;2239;48.152;11.584;2023-04-24T08:13:05;12.70;99.90
4453;DHT22;2239;48.152;11.584;2023-04-24T08:15:30;12.70;99.90
4453;DHT22;2239;48.152;11.584;2023-04-24T08:17:57;12.60;99.90
4453;DHT22;2239;48.152;11.584;2023-04-24T08:20:22;12.60;99.90
4453;DHT22;2239;48.152;11.584;2023-04-24T08:22:48;12.60;99.90
4453;DHT22;2239;48.152;11.584;2023-04-24T08:25:14;12.50;99.90
4453;DHT22;2239;48.152;11.584;2023-04-24T08:27:39;12.40;99.90
4453;DHT22;2239;48.152;11.584;2023-04-24T08:30:07;12.30;99.90
4453;DHT22;2239;48.152;11.584;2023-04-24T08:32:33;12.20;99.90
4453;DHT22;2239;48.152;11.584;2023-04-24T08:34:59;12.00;99.90
4453;DHT22;2239;48.152;11.584;2023-04-24T08:37:26;12.00;99.90
4453;DHT22;2239;48.152;11.584;2023-04-24T08:39:52;11.90;99.90
4453;DHT22;2239;48.152;11.584;2023-04-24T08:42:19;11.90;99.90
4453;DHT22;2239;48.152;11.584;2023-04-24T08:44:45;11.70;99.90
4453;DHT22;2239;48.152;11.584;2023-04-24T08:47:11;11.50;99.90
4453;DHT22;2239;48.152;11.584;2023-04-24T08:49:38;11.40;99.90
4453;DHT22;2239;48.152;11.584;2023-04-24T08:52:05;11.40;99.90
4453;DHT22;2239;48.152;11.584;2023-04-24T08:54:32;11.60;99.90
4453;DHT22;2239;48.152;11.584;2023-04-24T08:57:00;11.80;99.90
4453;DHT22;2239;48.152;11.584;2023-04-24T08:59:27;12.00;99.90
4453;DHT22;2239;48.152;11.584;2023-04-24T09:01:53;12.00;99.90
4453;DHT22;2239;48.152;11.584;2023-04-24T09:04:20;12.00;99.90
4453;DHT22;2239;48.152;11.584;2023-04-24T09:06:48;11.90;99.90
4453;DHT22;2239;48.152;11.584;2023-04-24T09:09:16;11.80;99.90
4453;DHT22;2239;48.152;11.584;2023-04-24T09:11:42;11.80;99.90
4453;DHT22;2239;48.152;11.584;2023-04-24T09:14:09;11.70;99.90
4453;DHT22;2239;48.152;11.584;2023-04-24T09:16:35;11.70;99.90
4453;DHT22;2239;48.152;11.584;2023-04-24T09:19:01;11.70;99.90
4453;DHT22;2239;48.152;11.584;2023-04-24T09:21:32;11.80;99.90
4453;DHT22;2239;48.152;11.584;2023-04-24T09:24:07;11.90;99.90
4453;DHT22;2239;48.152;11.584;2023-04-24T09:26:36;12.10;99.90
4453;DHT22;2239;48.152;11.584;2023-04-24T09:29:03;12.20;99.90
4453;DHT22;2239;48.152;11.584;2023-04-24T09:31:29;12.20;99.90
4453;DHT22;2239;48.152;11.584;2023-04-24T09:36:32;12.20;99.90
4453;DHT22;2239;48.152;11.584;2023-04-24T09:39:12;12.30;99.90
4453;DHT22;2239;48.152;11.584;2023-04-24T09:41:50;12.50;99.90
4453;DHT22;2239;48.152;11.584;2023-04-24T09:44:18;12.70;99.90
4453;DHT22;2239;48.152;11.584;2023-04-24T09:46:51;12.90;99.90
4453;DHT22;2239;48.152;11.584;2023-04-24T09:49:26;13.10;99.30
4453;DHT22;2239;48.152;11.584;2023-04-24T09:51:53;13.10;98.70
4453;DHT22;2239;48.152;11.584;2023-04-24T09:54:27;13.20;99.00
4453;DHT22;2239;48.152;11.584;2023-04-24T09:56:55;13.40;98.30
4453;DHT22;2239;48.152;11.584;2023-04-24T09:59:22;13.40;97.90
4453;DHT22;2239;48.152;11.584;2023-04-24T10:01:48;13.40;98.40
4453;DHT22;2239;48.152;11.584;2023-04-24T10:04:23;13.50;98.30
4453;DHT22;2239;48.152;11.584;2023-04-24T10:06:50;13.50;97.70
4453;DHT22;2239;48.152;11.584;2023-04-24T10:09:26;13.60;98.10
4453;DHT22;2239;48.152;11.584;2023-04-24T10:11:53;13.80;98.10
4453;DHT22;2239;48.152;11.584;2023-04-24T10:14:22;14.00;97.70
4453;DHT22;2239;48.152;11.584;2023-04-24T10:16:48;14.00;97.80
4453;DHT22;2239;48.152;11.584;2023-04-24T10:19:15;13.90;97.50
4453;DHT22;2239;48.152;11.584;2023-04-24T10:21:43;13.80;97.80
4453;DHT22;2239;48.152;11.584;2023-04-24T10:24:17;13.70;97.60
4453;DHT22;2239;48.152;11.584;2023-04-24T10:26:44;13.50;97.20
4453;DHT22;2239;48.152;11.584;2023-04-24T10:29:11;13.50;97.50
4453;DHT22;2239;48.152;11.584;2023-04-24T10:31:38;13.60;97.30
4453;DHT22;2239;48.152;11.584;2023-04-24T10:34:05;13.60;97.30
4453;DHT22;2239;48.152;11.584;2023-04-24T10:36:32;13.80;97.60
4453;DHT22;2239;48.152;11.584;2023-04-24T10:39:00;13.90;97.10
4453;DHT22;2239;48.152;11.584;2023-04-24T10:41:27;14.10;97.20
4453;DHT22;2239;48.152;11.584;2023-04-24T10:44:13;14.10;96.70
4453;DHT22;2239;48.152;11.584;2023-04-24T10:46:43;13.90;97.10
4453;DHT22;2239;48.152;11.584;2023-04-24T10:49:09;13.80;97.20
4453;DHT22;2239;48.152;11.584;2023-04-24T10:54:33;13.50;98.80
4453;DHT22;2239;48.152;11.584;2023-04-24T10:59:44;12.70;99.90
4453;DHT22;2239;48.152;11.584;2023-04-24T11:02:09;12.20;99.90
4453;DHT22;2239;48.152;11.584;2023-04-24T11:04:35;11.80;99.90
4453;DHT22;2239;48.152;11.584;2023-04-24T11:07:03;11.60;99.90
4453;DHT22;2239;48.152;11.584;2023-04-24T11:09:31;11.60;99.90
4453;DHT22;2239;48.152;11.584;2023-04-24T11:12:07;11.70;99.90
4453;DHT22;2239;48.152;11.584;2023-04-24T11:17:34;12.40;99.90
4453;DHT22;2239;48.152;11.584;2023-04-24T11:20:07;12.80;99.90
4453;DHT22;2239;48.152;11.584;2023-04-24T11:22:34;13.20;99.90
4453;DHT22;2239;48.152;11.584;2023-04-24T11:25:05;13.60;99.90
4453;DHT22;2239;48.152;11.584;2023-04-24T11:27:39;14.00;99.90
4453;DHT22;2239;48.152;11.584;2023-04-24T11:30:05;14.60;99.90
4453;DHT22;2239;48.152;11.584;2023-04-24T11:35:18;15.20;99.10
4453;DHT22;2239;48.152;11.584;2023-04-24T11:37:49;15.30;99.20
4453;DHT22;2239;48.152;11.584;2023-04-24T11:40:19;15.30;98.50
4453;DHT22;2239;48.152;11.584;2023-04-24T11:42:49;15.20;99.00
4453;DHT22;2239;48.152;11.584;2023-04-24T11:45:27;15.00;99.60
4453;DHT22;2239;48.152;11.584;2023-04-24T11:47:53;14.70;98.70
4453;DHT22;2239;48.152;11.584;2023-04-24T11:50:22;14.40;99.10
4453;DHT22;2239;48.152;11.584;2023-04-24T11:52:49;14.50;99.10
4453;DHT22;2239;48.152;11.584;2023-04-24T11:57:52;15.00;97.70
4453;DHT22;2239;48.152;11.584;2023-04-24T12:00:20;15.20;97.30
4453;DHT22;2239;48.152;11.584;2023-04-24T12:02:46;15.40;97.20
4453;DHT22;2239;48.152;11.584;2023-04-24T12:05:25;15.50;96.20
4453;DHT22;2239;48.152;11.584;2023-04-24T12:07:52;15.60;96.30
4453;DHT22;2239;48.152;11.584;2023-04-24T12:10:25;15.70;96.00
4453;DHT22;2239;48.152;11.584;2023-04-24T12:12:52;15.50;95.40
4453;DHT22;2239;48.152;11.584;2023-04-24T12:15:19;15.30;96.10
4453;DHT22;2239;48.152;11.584;2023-04-24T12:17:45;15.00;96.10
4453;DHT22;2239;48.152;11.584;2023-04-24T12:20:11;14.80;96.20
4453;DHT22;2239;48.152;11.584;2023-04-24T12:22:49;14.70;96.30
4453;DHT22;2239;48.152;11.584;2023-04-24T12:25:17;14.70;95.30
4453;DHT22;2239;48.152;11.584;2023-04-24T12:27:46;14.60;94.70
4453;DHT22;2239;48.152;11.584;2023-04-24T12:30:17;14.70;94.50
4453;DHT22;2239;48.152;11.584;2023-04-24T12:32:48;14.80;94.70
4453;DHT22;2239;48.152;11.584;2023-04-24T12:35:19;14.80;94.00
4453;DHT22;2239;48.152;11.584;2023-04-24T12:37:45;15.00;94.70
4453;DHT22;2239;48.152;11.584;2023-04-24T12:40:18;15.20;94.30
4453;DHT22;2239;48.152;11.584;2023-04-24T12:42:49;15.30;93.20
4453;DHT22;2239;48.152;11.584;2023-04-24T12:45:16;15.40;92.50
4453;DHT22;2239;48.152;11.584;2023-04-24T12:47:43;15.70;91.40
4453;DHT22;2239;48.152;11.584;2023-04-24T12:50:14;16.10;90.20
4453;DHT22;2239;48.152;11.584;2023-04-24T12:52:41;16.20;88.10
4453;DHT22;2239;48.152;11.584;2023-04-24T12:55:07;16.20;88.90
4453;DHT22;2239;48.152;11.584;2023-04-24T12:57:34;16.30;87.50
4453;DHT22;2239;48.152;11.584;2023-04-24T13:00:00;16.20;87.30
4453;DHT22;2239;48.152;11.584;2023-04-24T13:02:28;16.20;87.00
4453;DHT22;2239;48.152;11.584;2023-04-24T13:04:54;16.40;87.00
4453;DHT22;2239;48.152;11.584;2023-04-24T13:07:20;16.40;83.70
4453;DHT22;2239;48.152;11.584;2023-04-24T13:09:48;16.20;82.70
4453;DHT22;2239;48.152;11.584;2023-04-24T13:12:14;16.00;81.70
4453;DHT22;2239;48.152;11.584;2023-04-24T13:14:40;15.80;82.70
4453;DHT22;2239;48.152;11.584;2023-04-24T13:17:06;15.50;84.80
4453;DHT22;2239;48.152;11.584;2023-04-24T13:19:36;15.20;88.80
4453;DHT22;2239;48.152;11.584;2023-04-24T13:22:03;14.90;90.60
4453;DHT22;2239;48.152;11.584;2023-04-24T13:24:28;14.80;91.20
4453;DHT22;2239;48.152;11.584;2023-04-24T13:26:54;14.90;91.50
4453;DHT22;2239;48.152;11.584;2023-04-24T13:29:22;15.10;91.50
4453;DHT22;2239;48.152;11.584;2023-04-24T13:31:49;15.20;91.20
4453;DHT22;2239;48.152;11.584;2023-04-24T13:34:15;15.20;90.40
4453;DHT22;2239;48.152;11.584;2023-04-24T13:36:40;15.20;89.60
4453;DHT22;2239;48.152;11.584;2023-04-24T13:39:06;15.40;89.20
4453;DHT22;2239;48.152;11.584;2023-04-24T13:41:32;15.80;88.30
4453;DHT22;2239;48.152;11.584;2023-04-24T13:43:58;16.00;85.60
4453;DHT22;2239;48.152;11.584;2023-04-24T13:46:24;15.80;83.70
4453;DHT22;2239;48.152;11.584;2023-04-24T13:48:50;15.80;85.10
4453;DHT22;2239;48.152;11.584;2023-04-24T13:51:15;15.70;85.10
4453;DHT22;2239;48.152;11.584;2023-04-24T13:53:41;15.60;85.20
4453;DHT22;2239;48.152;11.584;2023-04-24T13:56:06;15.40;84.20
4453;DHT22;2239;48.152;11.584;2023-04-24T13:58:33;15.20;81.60
4453;DHT22;2239;48.152;11.584;2023-04-24T14:00:58;15.10;82.90
4453;DHT22;2239;48.152;11.584;2023-04-24T14:03:24;15.10;78.70
4453;DHT22;2239;48.152;11.584;2023-04-24T14:05:49;15.10;78.10
4453;DHT22;2239;48.152;11.584;2023-04-24T14:08:15;15.10;77.40
4453;DHT22;2239;48.152;11.584;2023-04-24T14:10:42;15.20;78.20
4453;DHT22;2239;48.152;11.584;2023-04-24T14:13:07;15.20;77.90
4453;DHT22;2239;48.152;11.584;2023-04-24T14:15:33;15.20;80.50
4453;DHT22;2239;48.152;11.584;2023-04-24T14:18:00;15.10;81.80
4453;DHT22;2239;48.152;11.584;2023-04-24T14:20:25;15.10;83.30
4453;DHT22;2239;48.152;11.584;2023-04-24T14:22:51;15.10;83.50
4453;DHT22;2239;48.152;11.584;2023-04-24T14:25:16;15.20;84.40
4453;DHT22;2239;48.152;11.584;2023-04-24T14:27:43;15.20;82.60
4453;DHT22;2239;48.152;11.584;2023-04-24T14:30:10;15.30;82.60
4453;DHT22;2239;48.152;11.584;2023-04-24T14:32:35;15.50;80.60
4453;DHT22;2239;48.152;11.584;2023-04-24T14:35:01;15.60;80.30
4453;DHT22;2239;48.152;11.584;2023-04-24T14:37:27;15.60;79.90
4453;DHT22;2239;48.152;11.584;2023-04-24T14:39:52;15.80;78.70
4453;DHT22;2239;48.152;11.584;2023-04-24T14:42:18;15.90;77.70
4453;DHT22;2239;48.152;11.584;2023-04-24T14:44:43;16.00;77.90
4453;DHT22;2239;48.152;11.584;2023-04-24T14:47:09;16.10;76.90
4453;DHT22;2239;48.152;11.584;2023-04-24T14:49:34;16.00;75.80
4453;DHT22;2239;48.152;11.584;2023-04-24T14:52:00;15.80;75.30
4453;DHT22;2239;48.152;11.584;2023-04-24T14:54:26;15.70;76.00
4453;DHT22;2239;48.152;11.584;2023-04-24T14:56:51;15.60;76.90
4453;DHT22;2239;48.152;11.584;2023-04-24T14:59:17;15.60;77.40
4453;DHT22;2239;48.152;11.584;2023-04-24T15:01:42;15.70;77.40
4453;DHT22;2239;48.152;11.584;2023-04-24T15:04:08;15.70;74.00
4453;DHT22;2239;48.152;11.584;2023-04-24T15:06:34;15.70;73.70
4453;DHT22;2239;48.152;11.584;2023-04-24T15:08:59;15.70;74.00
4453;DHT22;2239;48.152;11.584;2023-04-24T15:11:25;15.70;73.30
4453;DHT22;2239;48.152;11.584;2023-04-24T15:13:51;15.70;72.60
4453;DHT22;2239;48.152;11.584;2023-04-24T15:16:16;15.70;74.60
4453;DHT22;2239;48.152;11.584;2023-04-24T15:18:42;15.50;72.60
4453;DHT22;2239;48.152;11.584;2023-04-24T15:21:08;15.30;73.60
4453;DHT22;2239;48.152;11.584;2023-04-24T15:23:33;15.20;71.70
4453;DHT22;2239;48.152;11.584;2023-04-24T15:25:59;15.20;72.70
4453;DHT22;2239;48.152;11.584;2023-04-24T15:28:26;15.30;73.80
4453;DHT22;2239;48.152;11.584;2023-04-24T15:30:51;15.10;72.90
4453;DHT22;2239;48.152;11.584;2023-04-24T15:33:17;15.20;73.00
4453;DHT22;2239;48.152;11.584;2023-04-24T15:35:42;15.30;74.10
4453;DHT22;2239;48.152;11.584;2023-04-24T15:38:08;15.20;73.10
4453;DHT22;2239;48.152;11.584;2023-04-24T15:40:34;15.30;73.00
4453;DHT22;2239;48.152;11.584;2023-04-24T15:42:59;15.20;73.00
4453;DHT22;2239;48.152;11.584;2023-04-24T15:45:25;15.20;71.40
4453;DHT22;2239;48.152;11.584;2023-04-24T15:47:51;15.20;70.40
4453;DHT22;2239;48.152;11.584;2023-04-24T15:50:16;15.20;69.90
4453;DHT22;2239;48.152;11.584;2023-04-24T15:52:44;15.30;70.20
4453;DHT22;2239;48.152;11.584;2023-04-24T15:55:10;15.40;71.20
4453;DHT22;2239;48.152;11.584;2023-04-24T15:57:36;15.50;69.70
4453;DHT22;2239;48.152;11.584;2023-04-24T16:00:02;15.50;70.20